createdAt,value
2023-03-06T00:00:57.741Z,8.15
2023-03-06T00:03:27.888Z,10.77
2023-03-06T00:05:57.409Z,9.63
2023-03-06T00:08:25.645Z,9.73
2023-03-06T00:11:23.575Z,9.90
2023-03-06T00:13:50.585Z,6.05
2023-03-06T00:16:17.606Z,10.00
2023-03-06T00:18:45.151Z,9.10
2023-03-06T00:21:12.115Z,6.40
2023-03-06T00:39:23.034Z,7.50
2023-03-06T00:41:50.141Z,7.78
2023-03-06T00:44:17.099Z,10.93
2023-03-06T00:46:44.197Z,7.28
2023-03-06T00:49:11.191Z,8.60
2023-03-06T00:51:38.220Z,10.93
2023-03-06T00:54:05.195Z,11.13
2023-03-06T00:56:32.223Z,11.48
2023-03-06T00:58:59.396Z,8.32
2023-03-06T01:01:26.433Z,8.05
2023-03-06T01:03:53.459Z,12.40
2023-03-06T01:06:20.478Z,11.02
2023-03-06T01:08:47.563Z,12.23
2023-03-06T01:11:14.726Z,8.70
2023-03-06T01:13:41.759Z,9.27
2023-03-06T01:16:11.319Z,9.93
2023-03-06T01:18:39.136Z,13.05
2023-03-06T01:21:07.051Z,10.05
2023-03-06T01:23:34.546Z,13.75
2023-03-06T01:26:01.599Z,9.93
2023-03-06T01:28:29.239Z,8.85
2023-03-06T01:30:56.550Z,8.52
2023-03-06T01:33:23.509Z,8.52
2023-03-06T01:35:50.491Z,7.05
2023-03-06T01:38:17.548Z,8.57
2023-03-06T01:40:44.703Z,6.63
2023-03-06T01:43:36.992Z,11.85
2023-03-06T01:46:30.858Z,10.90
2023-03-06T01:49:08.907Z,7.68
2023-03-06T01:52:01.592Z,6.85
2023-03-06T01:54:32.772Z,11.73
2023-03-06T01:57:20.704Z,9.60
2023-03-06T01:59:53.183Z,9.02
2023-03-06T02:02:20.905Z,9.57
2023-03-06T02:04:48.731Z,8.25
2023-03-06T02:07:19.433Z,12.50
2023-03-06T02:09:46.366Z,12.13
2023-03-06T02:12:17.419Z,11.45
2023-03-06T02:14:45.146Z,9.23
2023-03-06T02:17:15.438Z,7.40
2023-03-06T02:19:54.851Z,9.90
2023-03-06T02:22:23.326Z,7.82
2023-03-06T02:24:55.084Z,8.65
2023-03-06T02:27:24.449Z,11.40
2023-03-06T02:29:51.713Z,13.68
2023-03-06T02:32:18.762Z,9.95
2023-03-06T02:34:53.520Z,11.93
2023-03-06T02:37:21.616Z,10.07
2023-03-06T02:39:53.635Z,11.10
2023-03-06T02:42:23.913Z,10.35
2023-03-06T02:44:54.857Z,14.35
2023-03-06T02:47:22.139Z,16.20
2023-03-06T02:49:49.172Z,10.73
2023-03-06T02:52:16.139Z,14.00
2023-03-06T02:54:43.269Z,13.57
2023-03-06T02:57:10.319Z,14.60
2023-03-06T02:59:37.284Z,13.98
2023-03-06T03:02:04.514Z,14.85
2023-03-06T03:04:31.508Z,13.85
2023-03-06T03:06:58.526Z,9.73
2023-03-06T03:09:25.616Z,15.45
2023-03-06T03:11:52.481Z,13.50
2023-03-06T03:14:19.574Z,13.27
2023-03-06T03:16:46.644Z,11.60
2023-03-06T03:19:13.663Z,10.75
2023-03-06T03:21:41.748Z,12.63
2023-03-06T03:24:09.609Z,14.52
2023-03-06T03:26:36.615Z,11.95
2023-03-06T03:29:05.231Z,13.52
2023-03-06T03:31:32.950Z,11.20
2023-03-06T03:34:00.699Z,10.18
2023-03-06T03:36:27.806Z,13.27
2023-03-06T03:38:55.618Z,13.90
2023-03-06T03:41:22.737Z,15.00
2023-03-06T03:43:49.800Z,12.68
2023-03-06T03:46:16.826Z,13.82
2023-03-06T03:48:43.839Z,10.85
2023-03-06T03:51:13.167Z,10.85
2023-03-06T03:53:40.439Z,14.55
2023-03-06T03:56:07.585Z,11.98
2023-03-06T03:58:34.945Z,16.05
2023-03-06T04:01:02.098Z,11.35
2023-03-06T04:03:29.303Z,14.05
2023-03-06T04:05:58.161Z,13.93
2023-03-06T04:08:26.372Z,12.23
2023-03-06T04:10:54.358Z,11.43
2023-03-06T04:13:22.370Z,11.52
2023-03-06T04:15:51.828Z,14.63
2023-03-06T04:18:19.769Z,15.10
2023-03-06T04:20:48.214Z,13.90
2023-03-06T04:23:16.092Z,17.42
2023-03-06T04:25:44.088Z,17.17
2023-03-06T04:28:11.580Z,15.20
2023-03-06T04:30:38.990Z,18.42
2023-03-06T04:33:06.775Z,18.70
2023-03-06T04:35:33.837Z,16.40
2023-03-06T04:38:00.926Z,15.35
2023-03-06T04:40:30.181Z,15.70
2023-03-06T04:42:58.927Z,16.70
2023-03-06T04:45:27.296Z,17.85
2023-03-06T04:47:54.424Z,22.02
2023-03-06T04:50:22.983Z,20.08
2023-03-06T04:52:50.217Z,19.08
2023-03-06T04:55:18.130Z,19.50
2023-03-06T04:57:47.284Z,20.60
2023-03-06T05:00:20.910Z,18.48
2023-03-06T05:02:48.998Z,21.00
2023-03-06T05:05:17.589Z,21.17
2023-03-06T05:07:44.913Z,19.63
2023-03-06T05:10:14.574Z,25.35
2023-03-06T05:12:41.563Z,16.70
2023-03-06T05:15:09.891Z,20.45
2023-03-06T05:17:37.198Z,21.08
2023-03-06T05:20:07.041Z,20.08
2023-03-06T05:22:34.994Z,21.77
2023-03-06T05:25:02.312Z,25.88
2023-03-06T05:27:29.401Z,23.33
2023-03-06T05:29:56.542Z,24.10
2023-03-06T05:32:23.872Z,20.00
2023-03-06T05:34:51.431Z,22.58
2023-03-06T05:37:18.542Z,28.40
2023-03-06T05:39:45.887Z,27.52
2023-03-06T05:42:13.044Z,27.38
2023-03-06T05:44:41.966Z,27.80
2023-03-06T05:47:09.248Z,24.42
2023-03-06T05:49:36.746Z,26.30
2023-03-06T05:52:05.463Z,24.35
2023-03-06T05:54:33.861Z,22.83
2023-03-06T05:57:01.547Z,27.48
2023-03-06T05:59:29.248Z,25.45
2023-03-06T06:01:57.238Z,26.63
2023-03-06T06:04:26.273Z,27.45
2023-03-06T06:06:59.693Z,33.08
2023-03-06T06:09:27.619Z,29.45
2023-03-06T06:11:57.105Z,24.20
2023-03-06T06:14:24.682Z,24.60
2023-03-06T06:16:51.939Z,25.55
2023-03-06T06:19:20.340Z,28.50
2023-03-06T06:21:50.057Z,26.65
2023-03-06T06:24:18.732Z,23.67
2023-03-06T06:26:46.463Z,25.40
2023-03-06T06:29:13.905Z,26.48
2023-03-06T06:31:41.776Z,30.05
2023-03-06T06:34:10.992Z,43.13
2023-03-06T06:36:38.629Z,26.90
2023-03-06T06:39:06.617Z,27.73
2023-03-06T06:41:52.988Z,30.08
2023-03-06T06:44:21.229Z,28.02
2023-03-06T06:47:21.383Z,26.75
2023-03-06T06:49:36.993Z,27.60
2023-03-06T06:52:04.702Z,31.17
2023-03-06T06:54:32.956Z,26.00
2023-03-06T06:57:00.284Z,29.23
2023-03-06T06:59:27.318Z,30.63
2023-03-06T07:01:54.350Z,30.20
2023-03-06T07:04:21.555Z,30.85
2023-03-06T07:06:48.618Z,30.73
2023-03-06T07:09:16.414Z,27.00
2023-03-06T07:11:43.767Z,27.10
2023-03-06T07:14:10.804Z,29.48
2023-03-06T07:16:38.845Z,30.77
2023-03-06T07:19:06.606Z,28.27
2023-03-06T07:21:33.798Z,31.73
2023-03-06T07:24:01.239Z,27.20
2023-03-06T07:26:28.639Z,29.30
2023-03-06T07:28:55.863Z,31.52
2023-03-06T07:31:26.364Z,34.40
2023-03-06T07:33:54.718Z,28.20
2023-03-06T07:36:23.532Z,35.72
2023-03-06T07:38:50.576Z,34.42
2023-03-06T07:41:21.853Z,33.85
2023-03-06T07:43:49.895Z,35.47
2023-03-06T07:46:17.510Z,31.65
2023-03-06T07:48:44.839Z,33.72
2023-03-06T07:51:17.952Z,30.80
2023-03-06T07:53:45.151Z,30.35
2023-03-06T07:56:12.864Z,31.88
2023-03-06T07:58:43.316Z,33.70
2023-03-06T08:01:13.945Z,32.35
2023-03-06T08:03:41.127Z,33.80
2023-03-06T08:06:10.967Z,36.20
2023-03-06T08:08:39.920Z,37.38
2023-03-06T08:11:08.653Z,33.78
2023-03-06T08:13:36.567Z,33.38
2023-03-06T08:16:04.039Z,32.67
2023-03-06T08:18:31.311Z,37.53
2023-03-06T08:21:05.432Z,33.92
2023-03-06T08:23:33.216Z,32.57
2023-03-06T08:26:02.829Z,32.65
2023-03-06T08:28:29.972Z,39.55
2023-03-06T08:30:57.593Z,38.25
2023-03-06T08:33:25.308Z,36.40
2023-03-06T08:35:52.947Z,32.90
2023-03-06T08:38:20.005Z,37.38
2023-03-06T08:40:47.082Z,36.28
2023-03-06T08:43:14.460Z,26.90
2023-03-06T08:45:41.739Z,27.17
2023-03-06T08:48:08.801Z,28.80
2023-03-06T08:50:35.768Z,29.77
2023-03-06T08:53:02.967Z,28.85
2023-03-06T08:55:30.382Z,30.35
2023-03-06T08:57:58.783Z,24.85
2023-03-06T09:00:26.065Z,28.83
2023-03-06T09:02:53.090Z,29.10
2023-03-06T09:05:20.322Z,25.55
2023-03-06T09:07:47.287Z,31.23
2023-03-06T09:10:17.312Z,27.50
2023-03-06T09:12:50.171Z,24.33
2023-03-06T09:15:19.989Z,22.87
2023-03-06T09:17:48.176Z,20.33
2023-03-06T09:20:16.193Z,21.45
2023-03-06T09:22:43.937Z,19.92
2023-03-06T09:25:13.654Z,16.83
2023-03-06T09:27:42.661Z,19.83
2023-03-06T09:30:12.766Z,16.00
2023-03-06T09:32:40.856Z,17.15
2023-03-06T09:35:11.342Z,17.77
2023-03-06T09:37:40.846Z,18.52
2023-03-06T09:40:13.902Z,17.10
2023-03-06T09:42:41.169Z,13.23
2023-03-06T09:45:11.195Z,14.82
2023-03-06T09:48:04.985Z,13.77
2023-03-06T09:50:49.511Z,11.95
2023-03-06T09:53:33.301Z,13.20
2023-03-06T09:56:22.758Z,11.10
2023-03-06T09:58:56.332Z,11.40
2023-03-06T10:01:28.348Z,10.20
2023-03-06T10:04:07.934Z,11.52
2023-03-06T10:06:49.617Z,10.07
2023-03-06T10:09:32.027Z,11.95
2023-03-06T10:12:06.911Z,10.90
2023-03-06T10:14:49.230Z,9.70
2023-03-06T10:17:20.502Z,9.88
2023-03-06T10:19:48.346Z,7.90
2023-03-06T10:22:18.340Z,8.30
2023-03-06T10:25:04.276Z,9.32
2023-03-06T10:27:34.248Z,8.30
2023-03-06T10:30:23.025Z,7.43
2023-03-06T10:33:06.381Z,6.63
2023-03-06T10:35:47.695Z,6.97
2023-03-06T10:38:37.664Z,6.53
2023-03-06T10:41:14.197Z,7.13
2023-03-06T10:44:00.174Z,7.88
2023-03-06T10:46:30.868Z,6.28
2023-03-06T10:49:00.926Z,6.07
2023-03-06T10:51:30.437Z,5.45
2023-03-06T10:54:00.565Z,6.38
2023-03-06T10:56:27.811Z,5.03
2023-03-06T10:59:17.872Z,4.18
2023-03-06T11:01:51.956Z,5.32
2023-03-06T11:04:30.256Z,4.93
2023-03-06T11:07:21.944Z,4.45
2023-03-06T11:09:58.071Z,5.75
2023-03-06T11:12:35.673Z,7.68
2023-03-06T11:15:14.751Z,7.40
2023-03-06T11:18:04.449Z,4.53
2023-03-06T11:20:52.410Z,4.55
2023-03-06T11:23:35.028Z,5.25
2023-03-06T11:26:14.054Z,3.75
2023-03-06T11:37:11.179Z,3.08
2023-03-06T11:40:05.506Z,2.88
2023-03-06T11:42:47.203Z,2.03
2023-03-06T11:46:29.646Z,3.95
2023-03-06T11:49:39.113Z,7.05
2023-03-06T12:00:08.994Z,4.15
2023-03-06T12:03:28.429Z,4.32
2023-03-06T12:06:10.212Z,4.30
2023-03-06T12:08:51.188Z,5.45
2023-03-06T12:11:23.880Z,5.53
2023-03-06T12:14:17.237Z,4.97
2023-03-06T12:17:14.129Z,4.65
2023-03-06T12:19:56.090Z,5.55
2023-03-06T12:22:25.846Z,4.82
2023-03-06T12:25:05.284Z,8.77
2023-03-06T12:27:53.472Z,2.83
2023-03-06T12:30:58.098Z,3.15
2023-03-06T12:33:24.962Z,13.38
2023-03-06T12:36:01.542Z,2.67
2023-03-06T12:38:43.496Z,3.45
2023-03-06T12:41:38.643Z,3.92
2023-03-06T12:44:27.053Z,5.55
2023-03-06T12:47:08.259Z,4.95
2023-03-06T12:49:38.949Z,4.47
2023-03-06T12:52:08.920Z,4.22
2023-03-06T12:54:39.865Z,5.95
2023-03-06T12:57:09.408Z,3.70
2023-03-06T12:59:47.160Z,3.28
2023-03-06T13:02:14.249Z,5.88
2023-03-06T13:05:00.505Z,2.97
2023-03-06T13:07:31.759Z,4.75
2023-03-06T13:10:11.302Z,4.80
2023-03-06T13:12:55.706Z,4.97
2023-03-06T13:15:35.559Z,2.30
2023-03-06T13:18:22.388Z,6.30
2023-03-06T13:20:50.945Z,3.03
2023-03-06T13:23:33.202Z,2.70
2023-03-06T13:26:01.202Z,4.63
2023-03-06T13:28:45.057Z,2.90
2023-03-06T13:31:26.425Z,3.92
2023-03-06T13:33:57.645Z,2.42
2023-03-06T13:36:34.447Z,2.45
2023-03-06T13:39:06.576Z,3.60
2023-03-06T13:41:35.642Z,2.42
2023-03-06T13:44:25.364Z,3.58
2023-03-06T13:47:05.897Z,3.75
2023-03-06T13:49:34.542Z,2.90
2023-03-06T13:52:17.993Z,2.58
2023-03-06T13:55:03.498Z,4.20
2023-03-06T14:00:46.359Z,2.50
2023-03-06T14:03:49.186Z,4.82
2023-03-06T14:06:34.728Z,3.75
2023-03-06T14:09:04.619Z,6.22
2023-03-06T14:11:32.596Z,3.05
2023-03-06T14:13:59.945Z,5.15
2023-03-06T14:16:37.612Z,3.08
2023-03-06T14:19:17.437Z,3.67
2023-03-06T14:21:56.994Z,3.65
2023-03-06T14:24:46.037Z,3.25
2023-03-06T14:27:19.581Z,5.15
2023-03-06T14:29:49.946Z,3.08
2023-03-06T14:32:22.499Z,3.03
2023-03-06T14:34:49.553Z,5.55
2023-03-06T14:37:36.427Z,2.78
2023-03-06T14:40:11.365Z,4.10
2023-03-06T14:42:38.424Z,5.88
2023-03-06T14:45:10.499Z,6.20
2023-03-06T14:47:40.818Z,4.75
2023-03-06T14:50:30.404Z,3.55
2023-03-06T14:53:08.577Z,5.15
2023-03-06T14:55:36.733Z,4.55
2023-03-06T14:58:11.668Z,4.32
2023-03-06T15:01:06.537Z,3.15
2023-03-06T15:03:56.500Z,3.53
2023-03-06T15:06:29.416Z,3.42
2023-03-06T15:09:21.034Z,4.75
2023-03-06T15:12:01.389Z,3.55
2023-03-06T15:14:41.384Z,3.90
2023-03-06T15:17:22.758Z,4.18
2023-03-06T15:19:55.252Z,6.20
2023-03-06T15:22:38.991Z,4.07
2023-03-06T15:25:30.616Z,3.47
2023-03-06T15:28:03.197Z,4.35
2023-03-06T15:30:38.724Z,3.55
2023-03-06T15:33:20.263Z,4.03
2023-03-06T15:36:07.920Z,5.30
2023-03-06T15:38:43.432Z,4.75
2023-03-06T15:41:34.076Z,4.40
2023-03-06T15:44:03.008Z,4.45
2023-03-06T15:46:30.530Z,7.22
2023-03-06T15:49:03.113Z,6.07
2023-03-06T15:51:32.044Z,4.38
2023-03-06T15:54:11.933Z,4.80
2023-03-06T15:56:41.971Z,5.90
2023-03-06T15:59:26.155Z,4.25
2023-03-06T16:01:54.397Z,5.30
2023-03-06T16:04:21.359Z,5.38
2023-03-06T16:06:48.307Z,7.45
2023-03-06T16:09:15.540Z,6.40
2023-03-06T16:11:44.873Z,4.80
2023-03-06T16:14:22.970Z,6.70
2023-03-06T16:16:52.136Z,8.40
2023-03-06T16:19:29.360Z,7.55
2023-03-06T16:21:59.995Z,6.68
2023-03-06T16:24:26.948Z,6.22
2023-03-06T16:26:55.156Z,9.63
2023-03-06T16:29:24.415Z,7.40
2023-03-06T16:31:59.052Z,8.60
2023-03-06T16:34:26.058Z,8.10
2023-03-06T16:36:53.504Z,7.20
2023-03-06T16:39:23.120Z,7.97
2023-03-06T16:41:50.920Z,10.27
2023-03-06T16:44:17.786Z,8.80
2023-03-06T16:46:47.746Z,6.57
2023-03-06T16:49:25.015Z,7.00
2023-03-06T16:51:56.467Z,10.57
2023-03-06T16:54:26.277Z,12.05
2023-03-06T16:56:53.266Z,12.80
2023-03-06T16:59:20.320Z,9.23
2023-03-06T17:01:49.477Z,7.80
2023-03-06T17:04:19.330Z,9.45
2023-03-06T17:06:46.457Z,11.65
2023-03-06T17:09:14.489Z,10.63
2023-03-06T17:11:44.976Z,9.55
2023-03-06T17:14:11.902Z,7.88
2023-03-06T17:16:42.312Z,7.03
2023-03-06T17:19:15.381Z,8.02
2023-03-06T17:21:44.074Z,8.40
2023-03-06T17:24:14.168Z,9.80
2023-03-06T17:26:41.745Z,11.45
2023-03-06T17:29:09.616Z,12.55
2023-03-06T17:31:36.777Z,13.40
2023-03-06T17:34:03.974Z,10.77
2023-03-06T17:36:32.575Z,10.73
2023-03-06T17:39:02.132Z,7.80
2023-03-06T17:41:29.405Z,6.93
2023-03-06T17:43:58.744Z,10.70
2023-03-06T17:46:26.333Z,8.57
2023-03-06T17:48:53.689Z,9.00
2023-03-06T17:51:21.148Z,8.38
2023-03-06T17:53:48.155Z,11.85
2023-03-06T17:56:15.812Z,6.80
2023-03-06T17:58:43.098Z,8.75
2023-03-06T18:01:16.573Z,7.57
2023-03-06T18:03:49.325Z,9.02
2023-03-06T18:06:17.979Z,9.88
2023-03-06T18:08:46.141Z,8.75
2023-03-06T18:11:13.448Z,8.52
2023-03-06T18:13:42.530Z,7.63
2023-03-06T18:16:12.436Z,7.22
2023-03-06T18:18:39.857Z,8.35
2023-03-06T18:21:12.453Z,10.63
2023-03-06T18:23:40.939Z,7.93
2023-03-06T18:26:14.125Z,8.88
2023-03-06T18:28:47.752Z,6.80
2023-03-06T18:31:26.196Z,8.65
2023-03-06T18:33:55.249Z,9.60
2023-03-06T18:36:26.789Z,9.50
2023-03-06T18:38:54.698Z,7.50
2023-03-06T18:41:22.409Z,8.52
2023-03-06T18:43:57.830Z,7.70
2023-03-06T18:46:26.368Z,7.22
2023-03-06T18:48:54.946Z,7.95
2023-03-06T18:51:22.249Z,9.27
2023-03-06T18:53:49.214Z,9.88
2023-03-06T18:56:21.413Z,8.60
2023-03-06T18:58:50.327Z,14.13
2023-03-06T19:01:17.907Z,9.77
2023-03-06T19:03:45.448Z,8.40
2023-03-06T19:06:17.012Z,9.07
2023-03-06T19:08:44.128Z,9.48
2023-03-06T19:11:13.956Z,9.73
2023-03-06T19:13:41.125Z,10.32
2023-03-06T19:16:08.789Z,12.10
2023-03-06T19:18:36.143Z,13.13
2023-03-06T19:21:12.351Z,16.20
2023-03-06T19:23:39.680Z,12.13
2023-03-06T19:26:08.050Z,14.23
2023-03-06T19:28:37.058Z,13.60
2023-03-06T19:31:28.623Z,14.98
2023-03-06T19:33:56.944Z,11.68
2023-03-06T19:36:27.761Z,10.45
2023-03-06T19:38:59.612Z,12.38
2023-03-06T19:41:27.236Z,11.18
2023-03-06T19:43:57.518Z,13.20
2023-03-06T19:46:25.928Z,11.85
2023-03-06T19:49:00.920Z,11.68
2023-03-06T19:53:56.388Z,12.98
2023-03-06T19:56:29.123Z,12.30
2023-03-06T19:58:56.812Z,14.52
2023-03-06T20:01:26.145Z,14.55
2023-03-06T20:03:59.183Z,13.32
2023-03-06T20:06:29.679Z,15.35
2023-03-06T20:08:57.187Z,17.98
2023-03-06T20:11:29.912Z,15.23
2023-03-06T20:14:02.287Z,17.35
2023-03-06T20:16:30.396Z,20.80
2023-03-06T20:19:00.043Z,24.33
2023-03-06T20:21:28.565Z,23.83
2023-03-06T20:23:58.414Z,26.90
2023-03-06T20:26:27.488Z,30.98
2023-03-06T20:28:55.122Z,28.90
2023-03-06T20:31:25.198Z,28.80
2023-03-06T20:33:54.268Z,33.10
2023-03-06T20:36:23.895Z,32.08
2023-03-06T20:38:51.345Z,40.55
2023-03-06T20:41:21.235Z,32.80
2023-03-06T20:43:49.077Z,34.47
2023-03-06T20:46:17.073Z,35.97
2023-03-06T20:48:47.508Z,36.30
2023-03-06T20:51:31.607Z,36.72
2023-03-06T20:54:01.317Z,37.33
2023-03-06T20:56:31.102Z,41.58
2023-03-06T20:58:58.509Z,45.83
2023-03-06T21:01:26.812Z,48.80
2023-03-06T21:03:54.668Z,44.50
2023-03-06T21:06:21.948Z,51.58
2023-03-06T21:08:49.541Z,51.75
2023-03-06T21:11:16.887Z,47.45
2023-03-06T21:13:44.043Z,49.70
2023-03-06T21:16:16.794Z,51.25
2023-03-06T21:18:44.256Z,46.65
2023-03-06T21:21:14.062Z,54.50
2023-03-06T21:23:41.039Z,52.15
2023-03-06T21:26:11.153Z,52.42
2023-03-06T21:28:38.660Z,50.75
2023-03-06T21:31:10.555Z,52.65
2023-03-06T21:33:38.368Z,59.38
2023-03-06T21:36:05.888Z,55.85
2023-03-06T21:38:33.601Z,55.85
2023-03-06T21:41:27.974Z,55.65
2023-03-06T21:43:56.963Z,58.00
2023-03-06T21:46:25.877Z,53.65
2023-03-06T21:48:58.922Z,57.17
2023-03-06T21:51:26.855Z,58.67
2023-03-06T21:53:55.199Z,64.60
2023-03-06T21:56:25.212Z,57.15
2023-03-06T21:58:52.568Z,64.10
2023-03-06T22:01:21.942Z,60.03
2023-03-06T22:03:49.161Z,62.38
2023-03-06T22:06:25.538Z,66.15
2023-03-06T22:08:54.189Z,64.00
2023-03-06T22:11:29.239Z,63.75
2023-03-06T22:14:00.672Z,63.75
2023-03-06T22:16:40.843Z,65.32
2023-03-06T22:19:43.454Z,65.93
2023-03-06T22:22:26.429Z,67.57
2023-03-06T22:28:04.511Z,64.20
2023-03-06T22:30:31.484Z,61.70
2023-03-06T22:40:45.152Z,61.20
2023-03-06T22:43:53.774Z,64.82
2023-03-06T22:46:20.893Z,62.10
2023-03-06T22:48:47.832Z,62.45
2023-03-06T22:59:28.105Z,58.33
2023-03-06T23:01:55.605Z,59.40
2023-03-06T23:04:22.649Z,54.58
2023-03-06T23:06:49.669Z,54.08
2023-03-06T23:09:21.536Z,60.08
2023-03-06T23:11:49.638Z,55.42
2023-03-06T23:14:18.584Z,54.78
2023-03-06T23:16:46.156Z,52.72
2023-03-06T23:19:14.029Z,50.20
2023-03-06T23:21:41.119Z,54.65
2023-03-06T23:24:08.600Z,50.13
2023-03-06T23:26:35.972Z,48.40
2023-03-06T23:29:04.407Z,52.05
2023-03-06T23:31:32.705Z,50.60
2023-03-06T23:34:02.368Z,47.25
2023-03-06T23:36:30.477Z,47.47
2023-03-06T23:38:58.224Z,48.90
2023-03-06T23:41:25.646Z,47.47
2023-03-06T23:43:55.069Z,42.92
2023-03-06T23:46:22.473Z,50.75
2023-03-06T23:48:50.186Z,47.05
2023-03-06T23:51:19.909Z,47.08
2023-03-06T23:53:47.823Z,46.65
2023-03-06T23:56:15.465Z,49.38
2023-03-06T23:58:42.650Z,49.53
